PWSweather.com
Personal Weather Stations
Station Observations
KCAEXETE14
Park Place, Exeter, CA 93221

Park PlaceExeter, CA 93221

Lat: 36.283487, Lon: -119.152218

Elevation: 380

Station Type: Davis Vantage Vue

http://weather.manyjourneys.com/

High Low Average
Temperature 78.9°F26.1°C 48.9°F9.4°C 62.4°F16.9°C
Dew Point 55.3°F12.9°C 45.8°F7.7°C 50.2°F10.1°C
Winds 2.3 mph 3.7 kmh Calm Calm Calm SWCalm SW
Wind Gusts 5.8 mph9.3 kmh -- 1.0 mph1.6 kmh
Humidity 90% 34% 68%
Pressure 30.13 in1020.3 mb 30.01 in1016.3 mb -
Precipitation 0.00 in0.0 mm - -
Hour Temp Dew Point Humidity Winds Wind Gusts Pressure Precip Precip Rate Daily Precip Total
12:00 AM 55.0°F12.8°C 49.9°F9.9°C 83% Calm Calm -- 30.04 in1017.3 mb - 0.00 in0.0 mm 0.00 in0.0 mm
12:05 AM 55.1°F12.8°C 49.7°F9.8°C 82% Calm Calm -- 30.04 in1017.3 mb - 0.00 in0.0 mm 0.00 in0.0 mm
12:10 AM 55.3°F12.9°C 49.6°F9.8°C 81% Calm Calm -- 30.04 in1017.3 mb - 0.00 in0.0 mm 0.00 in0.0 mm
12:15 AM 55.3°F12.9°C 49.6°F9.8°C 81% Calm Calm -- 30.04 in1017.3 mb - 0.00 in0.0 mm 0.00 in0.0 mm
12:20 AM 55.4°F13.0°C 49.7°F9.8°C 81% Calm Calm -- 30.04 in1017.3 mb - 0.00 in0.0 mm 0.00 in0.0 mm
12:25 AM 55.4°F13.0°C 50.0°F10.0°C 82% Calm Calm -- 30.04 in1017.3 mb - 0.00 in0.0 mm 0.00 in0.0 mm
12:30 AM 55.2°F12.9°C 49.5°F9.7°C 81% Calm Calm -- 30.04 in1017.3 mb - 0.00 in0.0 mm 0.00 in0.0 mm
12:35 AM 55.0°F12.8°C 49.3°F9.6°C 81% Calm Calm -- 30.04 in1017.3 mb - 0.00 in0.0 mm 0.00 in0.0 mm
12:40 AM 54.8°F12.7°C 49.4°F9.7°C 82% Calm Calm -- 30.04 in1017.3 mb - 0.00 in0.0 mm 0.00 in0.0 mm
12:45 AM 54.7°F12.6°C 49.3°F9.6°C 82% Calm Calm -- 30.04 in1017.3 mb - 0.00 in0.0 mm 0.00 in0.0 mm
12:50 AM 54.7°F12.6°C 49.6°F9.8°C 83% Calm Calm -- 30.04 in1017.3 mb - 0.00 in0.0 mm 0.00 in0.0 mm
12:55 AM 54.7°F12.6°C 49.3°F9.6°C 82% Calm Calm -- 30.04 in1017.3 mb - 0.00 in0.0 mm 0.00 in0.0 mm
01:00 AM 54.8°F12.7°C 49.4°F9.7°C 82% Calm Calm -- 30.04 in1017.3 mb - 0.00 in0.0 mm 0.00 in0.0 mm
01:05 AM 55.2°F12.9°C 49.8°F9.9°C 82% Calm Calm -- 30.04 in1017.3 mb - 0.00 in0.0 mm 0.00 in0.0 mm
01:10 AM 55.1°F12.8°C 49.7°F9.8°C 82% Calm Calm -- 30.04 in1017.3 mb - 0.00 in0.0 mm 0.00 in0.0 mm
01:15 AM 55.1°F12.8°C 50.0°F10.0°C 83% Calm Calm -- 30.04 in1017.3 mb - 0.00 in0.0 mm 0.00 in0.0 mm
01:20 AM 55.1°F12.8°C 49.7°F9.8°C 82% Calm Calm -- 30.04 in1017.3 mb - 0.00 in0.0 mm 0.00 in0.0 mm
01:25 AM 55.0°F12.8°C 49.3°F9.6°C 81% Calm Calm -- 30.04 in1017.3 mb - 0.00 in0.0 mm 0.00 in0.0 mm
01:30 AM 55.0°F12.8°C 49.9°F9.9°C 83% Calm Calm -- 30.04 in1017.3 mb - 0.00 in0.0 mm 0.00 in0.0 mm
01:35 AM 54.9°F12.7°C 49.8°F9.9°C 83% Calm Calm -- 30.04 in1017.3 mb - 0.00 in0.0 mm 0.00 in0.0 mm
01:40 AM 54.3°F12.4°C 49.3°F9.6°C 83% Calm Calm -- 30.04 in1017.3 mb - 0.00 in0.0 mm 0.00 in0.0 mm
01:45 AM 53.9°F12.2°C 49.2°F9.6°C 84% Calm Calm -- 30.04 in1017.3 mb - 0.00 in0.0 mm 0.00 in0.0 mm
01:50 AM 53.6°F12.0°C 48.9°F9.4°C 84% Calm Calm -- 30.04 in1017.3 mb - 0.00 in0.0 mm 0.00 in0.0 mm
01:55 AM 53.4°F11.9°C 49.0°F9.4°C 85% Calm Calm -- 30.04 in1017.3 mb - 0.00 in0.0 mm 0.00 in0.0 mm
02:00 AM 53.5°F11.9°C 49.1°F9.5°C 85% Calm Calm -- 30.04 in1017.3 mb - 0.00 in0.0 mm 0.00 in0.0 mm
02:05 AM 53.8°F12.1°C 49.1°F9.5°C 84% Calm Calm -- 30.05 in1017.6 mb - 0.00 in0.0 mm 0.00 in0.0 mm
02:10 AM 53.9°F12.2°C 49.2°F9.6°C 84% Calm Calm -- 30.05 in1017.6 mb - 0.00 in0.0 mm 0.00 in0.0 mm
02:15 AM 54.0°F12.2°C 49.0°F9.4°C 83% Calm Calm -- 30.05 in1017.6 mb - 0.00 in0.0 mm 0.00 in0.0 mm
02:20 AM 54.3°F12.4°C 48.9°F9.4°C 82% Calm Calm -- 30.05 in1017.6 mb - 0.00 in0.0 mm 0.00 in0.0 mm
02:25 AM 54.6°F12.6°C 48.9°F9.4°C 81% Calm Calm -- 30.05 in1017.6 mb - 0.00 in0.0 mm 0.00 in0.0 mm
02:30 AM 54.6°F12.6°C 48.6°F9.2°C 80% Calm Calm -- 30.05 in1017.6 mb - 0.00 in0.0 mm 0.00 in0.0 mm
02:35 AM 54.7°F12.6°C 48.7°F9.3°C 80% Calm Calm -- 30.05 in1017.6 mb - 0.00 in0.0 mm 0.00 in0.0 mm
02:40 AM 54.8°F12.7°C 48.8°F9.3°C 80% Calm Calm -- 30.05 in1017.6 mb - 0.00 in0.0 mm 0.00 in0.0 mm
02:45 AM 54.8°F12.7°C 48.8°F9.3°C 80% Calm Calm -- 30.05 in1017.6 mb - 0.00 in0.0 mm 0.00 in0.0 mm
02:50 AM 54.3°F12.4°C 48.6°F9.2°C 81% Calm Calm -- 30.05 in1017.6 mb - 0.00 in0.0 mm 0.00 in0.0 mm
02:55 AM 54.1°F12.3°C 48.4°F9.1°C 81% Calm Calm -- 30.05 in1017.6 mb - 0.00 in0.0 mm 0.00 in0.0 mm
03:00 AM 54.1°F12.3°C 48.7°F9.3°C 82% Calm Calm -- 30.05 in1017.6 mb - 0.00 in0.0 mm 0.00 in0.0 mm
03:05 AM 54.1°F12.3°C 48.4°F9.1°C 81% Calm Calm -- 30.05 in1017.6 mb - 0.00 in0.0 mm 0.00 in0.0 mm
03:10 AM 54.3°F12.4°C 48.3°F9.1°C 80% Calm Calm -- 30.05 in1017.6 mb - 0.00 in0.0 mm 0.00 in0.0 mm
03:15 AM 54.6°F12.6°C 48.2°F9.0°C 79% Calm Calm -- 30.05 in1017.6 mb - 0.00 in0.0 mm 0.00 in0.0 mm
03:20 AM 54.7°F12.6°C 48.3°F9.1°C 79% Calm Calm -- 30.05 in1017.6 mb - 0.00 in0.0 mm 0.00 in0.0 mm
03:25 AM 54.6°F12.6°C 48.3°F9.1°C 79% Calm Calm -- 30.05 in1017.6 mb - 0.00 in0.0 mm 0.00 in0.0 mm
03:30 AM 54.7°F12.6°C 48.4°F9.1°C 79% Calm Calm -- 30.05 in1017.6 mb - 0.00 in0.0 mm 0.00 in0.0 mm
03:35 AM 54.6°F12.6°C 48.6°F9.2°C 80% Calm Calm -- 30.05 in1017.6 mb - 0.00 in0.0 mm 0.00 in0.0 mm
03:40 AM 53.9°F12.2°C 47.8°F8.8°C 80% Calm Calm -- 30.05 in1017.6 mb - 0.00 in0.0 mm 0.00 in0.0 mm
03:45 AM 53.0°F11.7°C 47.3°F8.5°C 81% Calm Calm -- 30.05 in1017.6 mb - 0.00 in0.0 mm 0.00 in0.0 mm
03:50 AM 52.3°F11.3°C 46.9°F8.3°C 82% Calm Calm -- 30.05 in1017.6 mb - 0.00 in0.0 mm 0.00 in0.0 mm
03:55 AM 51.7°F10.9°C 46.7°F8.2°C 83% Calm Calm -- 30.05 in1017.6 mb - 0.00 in0.0 mm 0.00 in0.0 mm
04:00 AM 51.3°F10.7°C 46.6°F8.1°C 84% Calm Calm -- 30.05 in1017.6 mb - 0.00 in0.0 mm 0.00 in0.0 mm
04:05 AM 50.9°F10.5°C 46.6°F8.1°C 85% Calm Calm -- 30.05 in1017.6 mb - 0.00 in0.0 mm 0.00 in0.0 mm
04:10 AM 50.6°F10.3°C 46.6°F8.1°C 86% Calm Calm -- 30.05 in1017.6 mb - 0.00 in0.0 mm 0.00 in0.0 mm
04:15 AM 50.4°F10.2°C 46.3°F7.9°C 86% Calm Calm -- 30.05 in1017.6 mb - 0.00 in0.0 mm 0.00 in0.0 mm
04:20 AM 50.2°F10.1°C 46.5°F8.1°C 87% Calm Calm -- 30.05 in1017.6 mb - 0.00 in0.0 mm 0.00 in0.0 mm
04:25 AM 50.1°F10.1°C 46.7°F8.2°C 88% Calm Calm -- 30.05 in1017.6 mb - 0.00 in0.0 mm 0.00 in0.0 mm
04:30 AM 50.1°F10.1°C 46.7°F8.2°C 88% Calm Calm -- 30.05 in1017.6 mb - 0.00 in0.0 mm 0.00 in0.0 mm
04:35 AM 50.1°F10.1°C 46.6°F8.1°C 88% Calm Calm -- 30.06 in1017.9 mb - 0.00 in0.0 mm 0.00 in0.0 mm
04:40 AM 49.9°F9.9°C 46.5°F8.1°C 88% Calm Calm -- 30.06 in1017.9 mb - 0.00 in0.0 mm 0.00 in0.0 mm
04:45 AM 49.8°F9.9°C 46.4°F8.0°C 88% Calm Calm -- 30.06 in1017.9 mb - 0.00 in0.0 mm 0.00 in0.0 mm
04:50 AM 49.7°F9.8°C 46.3°F7.9°C 88% Calm Calm -- 30.06 in1017.9 mb - 0.00 in0.0 mm 0.00 in0.0 mm
04:55 AM 49.7°F9.8°C 46.3°F7.9°C 88% Calm Calm -- 30.06 in1017.9 mb - 0.00 in0.0 mm 0.00 in0.0 mm
05:00 AM 49.6°F9.8°C 46.2°F7.9°C 88% Calm Calm -- 30.06 in1017.9 mb - 0.00 in0.0 mm 0.00 in0.0 mm
05:05 AM 49.5°F9.7°C 46.4°F8.0°C 89% Calm Calm -- 30.06 in1017.9 mb - 0.00 in0.0 mm 0.00 in0.0 mm
05:10 AM 49.6°F9.8°C 46.2°F7.9°C 88% Calm Calm -- 30.07 in1018.3 mb - 0.00 in0.0 mm 0.00 in0.0 mm
05:15 AM 49.5°F9.7°C 46.1°F7.8°C 88% Calm Calm -- 30.07 in1018.3 mb - 0.00 in0.0 mm 0.00 in0.0 mm
05:20 AM 49.4°F9.7°C 46.3°F7.9°C 89% Calm Calm -- 30.07 in1018.3 mb - 0.00 in0.0 mm 0.00 in0.0 mm
05:25 AM 49.3°F9.6°C 46.2°F7.9°C 89% Calm Calm -- 30.07 in1018.3 mb - 0.00 in0.0 mm 0.00 in0.0 mm
05:30 AM 49.1°F9.5°C 46.0°F7.8°C 89% Calm Calm -- 30.07 in1018.3 mb - 0.00 in0.0 mm 0.00 in0.0 mm
05:35 AM 49.0°F9.4°C 45.9°F7.7°C 89% Calm Calm -- 30.07 in1018.3 mb - 0.00 in0.0 mm 0.00 in0.0 mm
05:40 AM 48.9°F9.4°C 45.8°F7.7°C 89% Calm Calm -- 30.07 in1018.3 mb - 0.00 in0.0 mm 0.00 in0.0 mm
05:45 AM 48.9°F9.4°C 46.1°F7.8°C 90% Calm Calm -- 30.07 in1018.3 mb - 0.00 in0.0 mm 0.00 in0.0 mm
05:50 AM 48.9°F9.4°C 46.1°F7.8°C 90% Calm Calm -- 30.07 in1018.3 mb - 0.00 in0.0 mm 0.00 in0.0 mm
05:55 AM 49.1°F9.5°C 46.3°F7.9°C 90% Calm Calm -- 30.07 in1018.3 mb - 0.00 in0.0 mm 0.00 in0.0 mm
06:00 AM 49.5°F9.7°C 46.7°F8.2°C 90% Calm Calm -- 30.07 in1018.3 mb - 0.00 in0.0 mm 0.00 in0.0 mm
06:05 AM 49.6°F9.8°C 46.5°F8.1°C 89% Calm Calm -- 30.07 in1018.3 mb - 0.00 in0.0 mm 0.00 in0.0 mm
06:10 AM 49.6°F9.8°C 46.5°F8.1°C 89% Calm Calm -- 30.07 in1018.3 mb - 0.00 in0.0 mm 0.00 in0.0 mm
06:15 AM 49.5°F9.7°C 46.4°F8.0°C 89% Calm Calm -- 30.07 in1018.3 mb - 0.00 in0.0 mm 0.00 in0.0 mm
06:20 AM 49.4°F9.7°C 46.3°F7.9°C 89% Calm Calm -- 30.07 in1018.3 mb - 0.00 in0.0 mm 0.00 in0.0 mm
06:25 AM 49.7°F9.8°C 46.6°F8.1°C 89% Calm Calm -- 30.07 in1018.3 mb - 0.00 in0.0 mm 0.00 in0.0 mm
06:30 AM 50.1°F10.1°C 46.7°F8.2°C 88% Calm Calm -- 30.07 in1018.3 mb - 0.00 in0.0 mm 0.00 in0.0 mm
06:35 AM 50.4°F10.2°C 47.0°F8.3°C 88% Calm Calm 1.2 mph1.9 kmh 30.07 in1018.3 mb - 0.00 in0.0 mm 0.00 in0.0 mm
06:40 AM 50.6°F10.3°C 46.9°F8.3°C 87% Calm Calm -- 30.07 in1018.3 mb - 0.00 in0.0 mm 0.00 in0.0 mm
06:45 AM 50.6°F10.3°C 46.9°F8.3°C 87% Calm Calm -- 30.07 in1018.3 mb - 0.00 in0.0 mm 0.00 in0.0 mm
06:50 AM 50.4°F10.2°C 46.4°F8.0°C 86% Calm Calm -- 30.08 in1018.6 mb - 0.00 in0.0 mm 0.00 in0.0 mm
06:55 AM 50.2°F10.1°C 46.5°F8.1°C 87% Calm Calm -- 30.08 in1018.6 mb - 0.00 in0.0 mm 0.00 in0.0 mm
07:00 AM 50.0°F10.0°C 46.6°F8.1°C 88% Calm Calm -- 30.08 in1018.6 mb - 0.00 in0.0 mm 0.00 in0.0 mm
07:05 AM 49.8°F9.9°C 46.4°F8.0°C 88% Calm Calm -- 30.08 in1018.6 mb - 0.00 in0.0 mm 0.00 in0.0 mm
07:10 AM 49.6°F9.8°C 46.5°F8.1°C 89% Calm Calm -- 30.08 in1018.6 mb - 0.00 in0.0 mm 0.00 in0.0 mm
07:15 AM 49.5°F9.7°C 46.4°F8.0°C 89% Calm Calm -- 30.09 in1019.0 mb - 0.00 in0.0 mm 0.00 in0.0 mm
07:20 AM 49.3°F9.6°C 45.9°F7.7°C 88% Calm Calm -- 30.08 in1018.6 mb - 0.00 in0.0 mm 0.00 in0.0 mm
07:25 AM 49.2°F9.6°C 46.1°F7.8°C 89% Calm Calm -- 30.09 in1019.0 mb - 0.00 in0.0 mm 0.00 in0.0 mm
07:30 AM 49.1°F9.5°C 46.0°F7.8°C 89% Calm Calm -- 30.08 in1018.6 mb - 0.00 in0.0 mm 0.00 in0.0 mm
07:35 AM 48.9°F9.4°C 45.8°F7.7°C 89% Calm Calm -- 30.09 in1019.0 mb - 0.00 in0.0 mm 0.00 in0.0 mm
07:40 AM 48.9°F9.4°C 45.8°F7.7°C 89% Calm Calm -- 30.09 in1019.0 mb - 0.00 in0.0 mm 0.00 in0.0 mm
07:45 AM 48.9°F9.4°C 45.8°F7.7°C 89% Calm Calm -- 30.09 in1019.0 mb - 0.00 in0.0 mm 0.00 in0.0 mm
07:50 AM 49.0°F9.4°C 45.9°F7.7°C 89% Calm Calm -- 30.09 in1019.0 mb - 0.00 in0.0 mm 0.00 in0.0 mm
07:55 AM 49.1°F9.5°C 46.3°F7.9°C 90% Calm Calm -- 30.10 in1019.3 mb - 0.00 in0.0 mm 0.00 in0.0 mm
08:00 AM 49.3°F9.6°C 46.5°F8.1°C 90% Calm Calm -- 30.10 in1019.3 mb - 0.00 in0.0 mm 0.00 in0.0 mm
08:05 AM 49.6°F9.8°C 46.8°F8.2°C 90% Calm Calm -- 30.10 in1019.3 mb - 0.00 in0.0 mm 0.00 in0.0 mm
08:10 AM 49.9°F9.9°C 47.1°F8.4°C 90% Calm Calm -- 30.10 in1019.3 mb - 0.00 in0.0 mm 0.00 in0.0 mm
08:15 AM 50.4°F10.2°C 47.5°F8.6°C 90% Calm Calm -- 30.11 in1019.6 mb - 0.00 in0.0 mm 0.00 in0.0 mm
08:20 AM 51.3°F10.7°C 48.5°F9.2°C 90% Calm Calm -- 30.11 in1019.6 mb - 0.00 in0.0 mm 0.00 in0.0 mm
08:25 AM 52.6°F11.4°C 49.2°F9.6°C 88% Calm Calm -- 30.11 in1019.6 mb - 0.00 in0.0 mm 0.00 in0.0 mm
08:30 AM 53.9°F12.2°C 49.8°F9.9°C 86% Calm Calm -- 30.11 in1019.6 mb - 0.00 in0.0 mm 0.00 in0.0 mm
08:35 AM 55.0°F12.8°C 50.2°F10.1°C 84% Calm Calm -- 30.11 in1019.6 mb - 0.00 in0.0 mm 0.00 in0.0 mm
08:40 AM 55.7°F13.2°C 50.3°F10.2°C 82% Calm Calm -- 30.12 in1020.0 mb - 0.00 in0.0 mm 0.00 in0.0 mm
08:45 AM 56.6°F13.7°C 50.9°F10.5°C 81% Calm Calm -- 30.12 in1020.0 mb - 0.00 in0.0 mm 0.00 in0.0 mm
08:50 AM 57.0°F13.9°C 50.9°F10.5°C 80% Calm Calm -- 30.12 in1020.0 mb - 0.00 in0.0 mm 0.00 in0.0 mm
08:55 AM 57.6°F14.2°C 51.1°F10.6°C 79% Calm Calm 1.2 mph1.9 kmh 30.12 in1020.0 mb - 0.00 in0.0 mm 0.00 in0.0 mm
09:00 AM 58.1°F14.5°C 50.9°F10.5°C 77% Calm Calm 1.2 mph1.9 kmh 30.13 in1020.3 mb - 0.00 in0.0 mm 0.00 in0.0 mm
09:05 AM 58.4°F14.7°C 50.9°F10.5°C 76% Calm Calm -- 30.13 in1020.3 mb - 0.00 in0.0 mm 0.00 in0.0 mm
09:10 AM 59.1°F15.1°C 51.2°F10.7°C 75% Calm Calm 1.2 mph1.9 kmh 30.12 in1020.0 mb - 0.00 in0.0 mm 0.00 in0.0 mm
09:15 AM 59.6°F15.3°C 51.3°F10.7°C 74% Calm Calm 2.3 mph3.7 kmh 30.12 in1020.0 mb - 0.00 in0.0 mm 0.00 in0.0 mm
09:20 AM 60.2°F15.7°C 51.5°F10.8°C 73% 1.2 mph SSE1.9 kmh SSE 3.5 mph5.6 kmh 30.12 in1020.0 mb - 0.00 in0.0 mm 0.00 in0.0 mm
09:25 AM 60.9°F16.1°C 51.8°F11.0°C 72% Calm Calm 1.2 mph1.9 kmh 30.12 in1020.0 mb - 0.00 in0.0 mm 0.00 in0.0 mm
09:30 AM 61.7°F16.5°C 51.8°F11.0°C 70% Calm Calm -- 30.12 in1020.0 mb - 0.00 in0.0 mm 0.00 in0.0 mm
09:35 AM 62.2°F16.8°C 51.5°F10.8°C 68% 1.2 mph ESE1.9 kmh ESE 2.3 mph3.7 kmh 30.12 in1020.0 mb - 0.00 in0.0 mm 0.00 in0.0 mm
09:40 AM 62.5°F16.9°C 51.8°F11.0°C 68% 2.3 mph SE3.7 kmh SE 3.5 mph5.6 kmh 30.12 in1020.0 mb - 0.00 in0.0 mm 0.00 in0.0 mm
09:45 AM 62.9°F17.2°C 51.7°F10.9°C 67% 1.2 mph E1.9 kmh E 2.3 mph3.7 kmh 30.12 in1020.0 mb - 0.00 in0.0 mm 0.00 in0.0 mm
09:50 AM 63.3°F17.4°C 52.2°F11.2°C 67% 1.2 mph S1.9 kmh S 4.6 mph7.4 kmh 30.12 in1020.0 mb - 0.00 in0.0 mm 0.00 in0.0 mm
09:55 AM 63.9°F17.7°C 52.3°F11.3°C 66% 1.2 mph SE1.9 kmh SE 3.5 mph5.6 kmh 30.11 in1019.6 mb - 0.00 in0.0 mm 0.00 in0.0 mm
10:00 AM 64.5°F18.1°C 52.9°F11.6°C 66% Calm Calm -- 30.11 in1019.6 mb - 0.00 in0.0 mm 0.00 in0.0 mm
10:05 AM 65.3°F18.5°C 52.8°F11.6°C 64% 1.2 mph SSE1.9 kmh SSE 3.5 mph5.6 kmh 30.11 in1019.6 mb - 0.00 in0.0 mm 0.00 in0.0 mm
10:10 AM 65.7°F18.7°C 52.8°F11.6°C 63% 1.2 mph S1.9 kmh S 3.5 mph5.6 kmh 30.11 in1019.6 mb - 0.00 in0.0 mm 0.00 in0.0 mm
10:15 AM 66.2°F19.0°C 53.3°F11.8°C 63% 1.2 mph SSE1.9 kmh SSE 3.5 mph5.6 kmh 30.11 in1019.6 mb - 0.00 in0.0 mm 0.00 in0.0 mm
10:20 AM 66.8°F19.3°C 53.4°F11.9°C 62% 1.2 mph S1.9 kmh S 1.2 mph1.9 kmh 30.11 in1019.6 mb - 0.00 in0.0 mm 0.00 in0.0 mm
10:25 AM 67.6°F19.8°C 53.6°F12.0°C 61% 1.2 mph SSE1.9 kmh SSE 2.3 mph3.7 kmh 30.11 in1019.6 mb - 0.00 in0.0 mm 0.00 in0.0 mm
10:30 AM 68.1°F20.1°C 53.2°F11.8°C 59% 1.2 mph SE1.9 kmh SE 3.5 mph5.6 kmh 30.11 in1019.6 mb - 0.00 in0.0 mm 0.00 in0.0 mm
10:35 AM 68.3°F20.2°C 53.9°F12.2°C 60% Calm Calm 1.2 mph1.9 kmh 30.11 in1019.6 mb - 0.00 in0.0 mm 0.00 in0.0 mm
10:40 AM 68.7°F20.4°C 53.8°F12.1°C 59% 1.2 mph SSE1.9 kmh SSE 3.5 mph5.6 kmh 30.11 in1019.6 mb - 0.00 in0.0 mm 0.00 in0.0 mm
10:45 AM 69.1°F20.6°C 53.7°F12.1°C 58% 2.3 mph SE3.7 kmh SE 4.6 mph7.4 kmh 30.11 in1019.6 mb - 0.00 in0.0 mm 0.00 in0.0 mm
10:50 AM 69.4°F20.8°C 53.5°F11.9°C 57% 1.2 mph SE1.9 kmh SE 3.5 mph5.6 kmh 30.11 in1019.6 mb - 0.00 in0.0 mm 0.00 in0.0 mm
10:55 AM 69.6°F20.9°C 53.7°F12.1°C 57% 1.2 mph SSE1.9 kmh SSE 3.5 mph5.6 kmh 30.11 in1019.6 mb - 0.00 in0.0 mm 0.00 in0.0 mm
11:00 AM 69.8°F21.0°C 54.4°F12.4°C 58% 1.2 mph S1.9 kmh S 2.3 mph3.7 kmh 30.11 in1019.6 mb - 0.00 in0.0 mm 0.00 in0.0 mm
11:05 AM 70.1°F21.2°C 54.1°F12.3°C 57% 2.3 mph S3.7 kmh S 3.5 mph5.6 kmh 30.11 in1019.6 mb - 0.00 in0.0 mm 0.00 in0.0 mm
11:10 AM 70.3°F21.3°C 54.4°F12.4°C 57% Calm Calm -- 30.11 in1019.6 mb - 0.00 in0.0 mm 0.00 in0.0 mm
11:15 AM 70.9°F21.6°C 53.9°F12.2°C 55% 2.3 mph S3.7 kmh S 5.8 mph9.3 kmh 30.11 in1019.6 mb - 0.00 in0.0 mm 0.00 in0.0 mm
11:20 AM 71.0°F21.7°C 55.0°F12.8°C 57% Calm Calm 2.3 mph3.7 kmh 30.10 in1019.3 mb - 0.00 in0.0 mm 0.00 in0.0 mm
11:25 AM 71.6°F22.0°C 55.0°F12.8°C 56% 1.2 mph S1.9 kmh S 2.3 mph3.7 kmh 30.10 in1019.3 mb - 0.00 in0.0 mm 0.00 in0.0 mm
11:30 AM 72.0°F22.2°C 54.5°F12.5°C 54% 1.2 mph SSE1.9 kmh SSE 2.3 mph3.7 kmh 30.10 in1019.3 mb - 0.00 in0.0 mm 0.00 in0.0 mm
11:35 AM 72.4°F22.4°C 55.3°F12.9°C 55% 1.2 mph S1.9 kmh S 2.3 mph3.7 kmh 30.10 in1019.3 mb - 0.00 in0.0 mm 0.00 in0.0 mm
11:40 AM 72.6°F22.6°C 55.0°F12.8°C 54% 1.2 mph SSE1.9 kmh SSE 3.5 mph5.6 kmh 30.10 in1019.3 mb - 0.00 in0.0 mm 0.00 in0.0 mm
11:45 AM 72.8°F22.7°C 54.6°F12.6°C 53% 1.2 mph SSE1.9 kmh SSE -- 30.09 in1019.0 mb - 0.00 in0.0 mm 0.00 in0.0 mm
11:50 AM 73.1°F22.8°C 54.9°F12.7°C 53% 1.2 mph S1.9 kmh S 1.2 mph1.9 kmh 30.09 in1019.0 mb - 0.00 in0.0 mm 0.00 in0.0 mm
11:55 AM 73.5°F23.1°C 54.8°F12.7°C 52% 1.2 mph SE1.9 kmh SE 3.5 mph5.6 kmh 30.09 in1019.0 mb - 0.00 in0.0 mm 0.00 in0.0 mm
12:00 PM 73.8°F23.2°C 55.1°F12.8°C 52% 1.2 mph SE1.9 kmh SE 2.3 mph3.7 kmh 30.09 in1019.0 mb - 0.00 in0.0 mm 0.00 in0.0 mm
12:05 PM 74.2°F23.4°C 54.9°F12.7°C 51% 1.2 mph ESE1.9 kmh ESE 3.5 mph5.6 kmh 30.08 in1018.6 mb - 0.00 in0.0 mm 0.00 in0.0 mm
12:10 PM 74.4°F23.6°C 55.1°F12.8°C 51% Calm Calm 1.2 mph1.9 kmh 30.08 in1018.6 mb - 0.00 in0.0 mm 0.00 in0.0 mm
12:15 PM 74.9°F23.8°C 55.0°F12.8°C 50% Calm Calm 1.2 mph1.9 kmh 30.08 in1018.6 mb - 0.00 in0.0 mm 0.00 in0.0 mm
12:20 PM 75.2°F24.0°C 54.7°F12.6°C 49% Calm Calm -- 30.08 in1018.6 mb - 0.00 in0.0 mm 0.00 in0.0 mm
12:25 PM 75.5°F24.2°C 55.0°F12.8°C 49% 1.2 mph SSE1.9 kmh SSE 3.5 mph5.6 kmh 30.08 in1018.6 mb - 0.00 in0.0 mm 0.00 in0.0 mm
12:30 PM 75.7°F24.3°C 54.0°F12.2°C 47% Calm Calm 1.2 mph1.9 kmh 30.08 in1018.6 mb - 0.00 in0.0 mm 0.00 in0.0 mm
12:35 PM 75.9°F24.4°C 54.8°F12.7°C 48% Calm Calm 1.2 mph1.9 kmh 30.08 in1018.6 mb - 0.00 in0.0 mm 0.00 in0.0 mm
12:40 PM 76.2°F24.6°C 53.3°F11.8°C 45% Calm Calm 1.2 mph1.9 kmh 30.08 in1018.6 mb - 0.00 in0.0 mm 0.00 in0.0 mm
12:45 PM 76.3°F24.6°C 54.6°F12.6°C 47% Calm Calm 2.3 mph3.7 kmh 30.07 in1018.3 mb - 0.00 in0.0 mm 0.00 in0.0 mm
12:50 PM 76.0°F24.4°C 51.9°F11.1°C 43% Calm Calm 1.2 mph1.9 kmh 30.07 in1018.3 mb - 0.00 in0.0 mm 0.00 in0.0 mm
12:55 PM 76.1°F24.5°C 52.0°F11.1°C 43% Calm Calm -- 30.07 in1018.3 mb - 0.00 in0.0 mm 0.00 in0.0 mm
01:00 PM 76.5°F24.7°C 53.0°F11.7°C 44% Calm Calm 1.2 mph1.9 kmh 30.07 in1018.3 mb - 0.00 in0.0 mm 0.00 in0.0 mm
01:05 PM 76.8°F24.9°C 54.5°F12.5°C 46% Calm Calm 1.2 mph1.9 kmh 30.07 in1018.3 mb - 0.00 in0.0 mm 0.00 in0.0 mm
01:10 PM 77.0°F25.0°C 52.1°F11.2°C 42% Calm Calm 1.2 mph1.9 kmh 30.07 in1018.3 mb - 0.00 in0.0 mm 0.00 in0.0 mm
01:15 PM 77.0°F25.0°C 49.4°F9.7°C 38% 1.2 mph N1.9 kmh N 2.3 mph3.7 kmh 30.07 in1018.3 mb - 0.00 in0.0 mm 0.00 in0.0 mm
01:20 PM 76.7°F24.8°C 51.9°F11.1°C 42% Calm Calm 1.2 mph1.9 kmh 30.06 in1017.9 mb - 0.00 in0.0 mm 0.00 in0.0 mm
01:25 PM 76.9°F24.9°C 50.8°F10.4°C 40% Calm Calm 2.3 mph3.7 kmh 30.06 in1017.9 mb - 0.00 in0.0 mm 0.00 in0.0 mm
01:30 PM 77.0°F25.0°C 51.5°F10.8°C 41% Calm Calm 1.2 mph1.9 kmh 30.06 in1017.9 mb - 0.00 in0.0 mm 0.00 in0.0 mm
01:35 PM 77.2°F25.1°C 51.0°F10.6°C 40% Calm Calm 1.2 mph1.9 kmh 30.05 in1017.6 mb - 0.00 in0.0 mm 0.00 in0.0 mm
01:40 PM 77.4°F25.2°C 52.5°F11.4°C 42% Calm Calm 1.2 mph1.9 kmh 30.05 in1017.6 mb - 0.00 in0.0 mm 0.00 in0.0 mm
01:45 PM 77.7°F25.4°C 50.8°F10.4°C 39% Calm Calm 2.3 mph3.7 kmh 30.05 in1017.6 mb - 0.00 in0.0 mm 0.00 in0.0 mm
01:50 PM 77.8°F25.4°C 52.2°F11.2°C 41% Calm Calm -- 30.05 in1017.6 mb - 0.00 in0.0 mm 0.00 in0.0 mm
01:55 PM 77.8°F25.4°C 49.4°F9.7°C 37% Calm Calm -- 30.04 in1017.3 mb - 0.00 in0.0 mm 0.00 in0.0 mm
02:00 PM 77.4°F25.2°C 51.2°F10.7°C 40% Calm Calm 1.2 mph1.9 kmh 30.04 in1017.3 mb - 0.00 in0.0 mm 0.00 in0.0 mm
02:05 PM 77.4°F25.2°C 50.5°F10.3°C 39% Calm Calm 1.2 mph1.9 kmh 30.04 in1017.3 mb - 0.00 in0.0 mm 0.00 in0.0 mm
02:10 PM 77.5°F25.3°C 51.3°F10.7°C 40% Calm Calm 1.2 mph1.9 kmh 30.04 in1017.3 mb - 0.00 in0.0 mm 0.00 in0.0 mm
02:15 PM 77.9°F25.5°C 52.3°F11.3°C 41% Calm Calm 1.2 mph1.9 kmh 30.04 in1017.3 mb - 0.00 in0.0 mm 0.00 in0.0 mm
02:20 PM 78.3°F25.7°C 49.9°F9.9°C 37% 1.2 mph WNW1.9 kmh WNW 1.2 mph1.9 kmh 30.04 in1017.3 mb - 0.00 in0.0 mm 0.00 in0.0 mm
02:25 PM 78.2°F25.7°C 51.9°F11.1°C 40% Calm Calm 1.2 mph1.9 kmh 30.04 in1017.3 mb - 0.00 in0.0 mm 0.00 in0.0 mm
02:30 PM 78.3°F25.7°C 50.6°F10.3°C 38% Calm Calm 1.2 mph1.9 kmh 30.03 in1016.9 mb - 0.00 in0.0 mm 0.00 in0.0 mm
02:35 PM 78.4°F25.8°C 50.7°F10.4°C 38% Calm Calm 1.2 mph1.9 kmh 30.03 in1016.9 mb - 0.00 in0.0 mm 0.00 in0.0 mm
02:40 PM 78.2°F25.7°C 49.1°F9.5°C 36% 1.2 mph NW1.9 kmh NW 2.3 mph3.7 kmh 30.03 in1016.9 mb - 0.00 in0.0 mm 0.00 in0.0 mm
02:45 PM 78.2°F25.7°C 49.8°F9.9°C 37% Calm Calm 1.2 mph1.9 kmh 30.03 in1016.9 mb - 0.00 in0.0 mm 0.00 in0.0 mm
02:50 PM 78.7°F25.9°C 50.2°F10.1°C 37% Calm Calm -- 30.03 in1016.9 mb - 0.00 in0.0 mm 0.00 in0.0 mm
02:55 PM 78.9°F26.1°C 49.7°F9.8°C 36% Calm Calm 1.2 mph1.9 kmh 30.02 in1016.6 mb - 0.00 in0.0 mm 0.00 in0.0 mm
03:00 PM 78.5°F25.8°C 48.6°F9.2°C 35% Calm Calm 1.2 mph1.9 kmh 30.02 in1016.6 mb - 0.00 in0.0 mm 0.00 in0.0 mm
03:05 PM 78.2°F25.7°C 48.3°F9.1°C 35% Calm Calm -- 30.02 in1016.6 mb - 0.00 in0.0 mm 0.00 in0.0 mm
03:10 PM 78.3°F25.7°C 49.1°F9.5°C 36% Calm Calm 1.2 mph1.9 kmh 30.02 in1016.6 mb - 0.00 in0.0 mm 0.00 in0.0 mm
03:15 PM 78.5°F25.8°C 50.1°F10.1°C 37% Calm Calm -- 30.02 in1016.6 mb - 0.00 in0.0 mm 0.00 in0.0 mm
03:20 PM 78.5°F25.8°C 48.6°F9.2°C 35% Calm Calm 1.2 mph1.9 kmh 30.02 in1016.6 mb - 0.00 in0.0 mm 0.00 in0.0 mm
03:25 PM 78.3°F25.7°C 48.4°F9.1°C 35% Calm Calm 1.2 mph1.9 kmh 30.02 in1016.6 mb - 0.00 in0.0 mm 0.00 in0.0 mm
03:30 PM 78.2°F25.7°C 48.3°F9.1°C 35% Calm Calm 2.3 mph3.7 kmh 30.02 in1016.6 mb - 0.00 in0.0 mm 0.00 in0.0 mm
03:35 PM 78.1°F25.6°C 48.2°F9.0°C 35% Calm Calm -- 30.02 in1016.6 mb - 0.00 in0.0 mm 0.00 in0.0 mm
03:40 PM 78.1°F25.6°C 47.4°F8.6°C 34% Calm Calm 1.2 mph1.9 kmh 30.02 in1016.6 mb - 0.00 in0.0 mm 0.00 in0.0 mm
03:45 PM 78.1°F25.6°C 48.2°F9.0°C 35% Calm Calm 1.2 mph1.9 kmh 30.02 in1016.6 mb - 0.00 in0.0 mm 0.00 in0.0 mm
03:50 PM 78.0°F25.6°C 48.9°F9.4°C 36% 1.2 mph NW1.9 kmh NW 1.2 mph1.9 kmh 30.01 in1016.3 mb - 0.00 in0.0 mm 0.00 in0.0 mm
03:55 PM 77.8°F25.4°C 48.7°F9.3°C 36% Calm Calm 1.2 mph1.9 kmh 30.01 in1016.3 mb - 0.00 in0.0 mm 0.00 in0.0 mm
04:00 PM 77.5°F25.3°C 48.4°F9.1°C 36% Calm Calm -- 30.01 in1016.3 mb - 0.00 in0.0 mm 0.00 in0.0 mm
04:05 PM 77.3°F25.2°C 49.0°F9.4°C 37% Calm Calm -- 30.01 in1016.3 mb - 0.00 in0.0 mm 0.00 in0.0 mm
04:10 PM 77.3°F25.2°C 48.2°F9.0°C 36% Calm Calm -- 30.01 in1016.3 mb - 0.00 in0.0 mm 0.00 in0.0 mm
04:15 PM 77.3°F25.2°C 49.0°F9.4°C 37% Calm Calm 1.2 mph1.9 kmh 30.01 in1016.3 mb - 0.00 in0.0 mm 0.00 in0.0 mm
04:20 PM 77.2°F25.1°C 50.3°F10.2°C 39% Calm Calm -- 30.01 in1016.3 mb - 0.00 in0.0 mm 0.00 in0.0 mm
04:25 PM 77.1°F25.1°C 48.8°F9.3°C 37% Calm Calm 1.2 mph1.9 kmh 30.02 in1016.6 mb - 0.00 in0.0 mm 0.00 in0.0 mm
04:30 PM 76.9°F24.9°C 47.9°F8.8°C 36% Calm Calm -- 30.01 in1016.3 mb - 0.00 in0.0 mm 0.00 in0.0 mm
04:35 PM 76.8°F24.9°C 48.6°F9.2°C 37% Calm Calm -- 30.01 in1016.3 mb - 0.00 in0.0 mm 0.00 in0.0 mm
04:40 PM 76.6°F24.8°C 48.4°F9.1°C 37% Calm Calm 1.2 mph1.9 kmh 30.01 in1016.3 mb - 0.00 in0.0 mm 0.00 in0.0 mm
04:45 PM 76.4°F24.7°C 47.5°F8.6°C 36% Calm Calm -- 30.01 in1016.3 mb - 0.00 in0.0 mm 0.00 in0.0 mm
04:50 PM 76.2°F24.6°C 47.3°F8.5°C 36% Calm Calm -- 30.02 in1016.6 mb - 0.00 in0.0 mm 0.00 in0.0 mm
04:55 PM 76.1°F24.5°C 48.6°F9.2°C 38% Calm Calm 1.2 mph1.9 kmh 30.01 in1016.3 mb - 0.00 in0.0 mm 0.00 in0.0 mm
05:00 PM 75.9°F24.4°C 47.8°F8.8°C 37% Calm Calm -- 30.02 in1016.6 mb - 0.00 in0.0 mm 0.00 in0.0 mm
05:05 PM 75.7°F24.3°C 47.6°F8.7°C 37% Calm Calm -- 30.02 in1016.6 mb - 0.00 in0.0 mm 0.00 in0.0 mm
05:10 PM 75.5°F24.2°C 47.4°F8.6°C 37% Calm Calm -- 30.02 in1016.6 mb - 0.00 in0.0 mm 0.00 in0.0 mm
05:15 PM 75.2°F24.0°C 46.4°F8.0°C 36% Calm Calm -- 30.01 in1016.3 mb - 0.00 in0.0 mm 0.00 in0.0 mm
05:20 PM 75.0°F23.9°C 46.9°F8.3°C 37% Calm Calm -- 30.01 in1016.3 mb - 0.00 in0.0 mm 0.00 in0.0 mm
05:25 PM 74.7°F23.7°C 47.4°F8.6°C 38% Calm Calm -- 30.01 in1016.3 mb - 0.00 in0.0 mm 0.00 in0.0 mm
05:30 PM 74.4°F23.6°C 47.8°F8.8°C 39% Calm Calm -- 30.01 in1016.3 mb - 0.00 in0.0 mm 0.00 in0.0 mm
05:35 PM 74.0°F23.3°C 48.1°F8.9°C 40% Calm Calm -- 30.01 in1016.3 mb - 0.00 in0.0 mm 0.00 in0.0 mm
05:40 PM 73.6°F23.1°C 47.7°F8.7°C 40% Calm Calm -- 30.01 in1016.3 mb - 0.00 in0.0 mm 0.00 in0.0 mm
05:45 PM 73.1°F22.8°C 49.9°F9.9°C 44% Calm Calm -- 30.01 in1016.3 mb - 0.00 in0.0 mm 0.00 in0.0 mm
05:50 PM 72.8°F22.7°C 50.2°F10.1°C 45% Calm Calm -- 30.01 in1016.3 mb - 0.00 in0.0 mm 0.00 in0.0 mm
05:55 PM 71.9°F22.2°C 50.5°F10.3°C 47% Calm Calm -- 30.02 in1016.6 mb - 0.00 in0.0 mm 0.00 in0.0 mm
06:00 PM 71.1°F21.7°C 51.5°F10.8°C 50% Calm Calm -- 30.02 in1016.6 mb - 0.00 in0.0 mm 0.00 in0.0 mm
06:05 PM 70.5°F21.4°C 51.5°F10.8°C 51% Calm Calm -- 30.02 in1016.6 mb - 0.00 in0.0 mm 0.00 in0.0 mm
06:10 PM 69.9°F21.1°C 51.0°F10.6°C 51% Calm Calm -- 30.02 in1016.6 mb - 0.00 in0.0 mm 0.00 in0.0 mm
06:15 PM 69.4°F20.8°C 50.5°F10.3°C 51% Calm Calm -- 30.02 in1016.6 mb - 0.00 in0.0 mm 0.00 in0.0 mm
06:20 PM 69.0°F20.6°C 51.2°F10.7°C 53% Calm Calm -- 30.02 in1016.6 mb - 0.00 in0.0 mm 0.00 in0.0 mm
06:25 PM 68.5°F20.3°C 51.7°F10.9°C 55% Calm Calm -- 30.02 in1016.6 mb - 0.00 in0.0 mm 0.00 in0.0 mm
06:30 PM 68.0°F20.0°C 51.2°F10.7°C 55% Calm Calm -- 30.02 in1016.6 mb - 0.00 in0.0 mm 0.00 in0.0 mm
06:35 PM 67.5°F19.7°C 51.3°F10.7°C 56% Calm Calm -- 30.02 in1016.6 mb - 0.00 in0.0 mm 0.00 in0.0 mm
06:40 PM 67.1°F19.5°C 51.4°F10.8°C 57% Calm Calm -- 30.02 in1016.6 mb - 0.00 in0.0 mm 0.00 in0.0 mm
06:45 PM 66.7°F19.3°C 51.5°F10.8°C 58% Calm Calm -- 30.03 in1016.9 mb - 0.00 in0.0 mm 0.00 in0.0 mm
06:50 PM 66.3°F19.1°C 51.6°F10.9°C 59% Calm Calm -- 30.03 in1016.9 mb - 0.00 in0.0 mm 0.00 in0.0 mm
06:55 PM 65.9°F18.8°C 51.6°F10.9°C 60% Calm Calm -- 30.03 in1016.9 mb - 0.00 in0.0 mm 0.00 in0.0 mm
07:00 PM 65.6°F18.7°C 51.8°F11.0°C 61% Calm Calm -- 30.03 in1016.9 mb - 0.00 in0.0 mm 0.00 in0.0 mm
07:05 PM 65.2°F18.4°C 52.7°F11.5°C 64% Calm Calm -- 30.03 in1016.9 mb - 0.00 in0.0 mm 0.00 in0.0 mm
07:10 PM 64.9°F18.3°C 52.8°F11.6°C 65% Calm Calm -- 30.03 in1016.9 mb - 0.00 in0.0 mm 0.00 in0.0 mm
07:15 PM 64.5°F18.1°C 52.5°F11.4°C 65% Calm Calm -- 30.03 in1016.9 mb - 0.00 in0.0 mm 0.00 in0.0 mm
07:20 PM 64.2°F17.9°C 52.6°F11.4°C 66% Calm Calm -- 30.03 in1016.9 mb - 0.00 in0.0 mm 0.00 in0.0 mm
07:25 PM 63.8°F17.7°C 52.2°F11.2°C 66% Calm Calm -- 30.04 in1017.3 mb - 0.00 in0.0 mm 0.00 in0.0 mm
07:30 PM 63.5°F17.5°C 51.9°F11.1°C 66% Calm Calm -- 30.04 in1017.3 mb - 0.00 in0.0 mm 0.00 in0.0 mm
07:35 PM 63.3°F17.4°C 51.7°F10.9°C 66% Calm Calm -- 30.04 in1017.3 mb - 0.00 in0.0 mm 0.00 in0.0 mm
07:40 PM 63.2°F17.3°C 52.0°F11.1°C 67% Calm Calm -- 30.04 in1017.3 mb - 0.00 in0.0 mm 0.00 in0.0 mm
07:45 PM 62.9°F17.2°C 51.8°F11.0°C 67% Calm Calm -- 30.04 in1017.3 mb - 0.00 in0.0 mm 0.00 in0.0 mm
07:50 PM 62.8°F17.1°C 52.5°F11.4°C 69% Calm Calm -- 30.04 in1017.3 mb - 0.00 in0.0 mm 0.00 in0.0 mm
07:55 PM 62.6°F17.0°C 52.7°F11.5°C 70% Calm Calm -- 30.04 in1017.3 mb - 0.00 in0.0 mm 0.00 in0.0 mm
08:00 PM 62.4°F16.9°C 52.4°F11.3°C 70% Calm Calm -- 30.04 in1017.3 mb - 0.00 in0.0 mm 0.00 in0.0 mm
08:05 PM 62.0°F16.7°C 52.1°F11.2°C 70% Calm Calm -- 30.04 in1017.3 mb - 0.00 in0.0 mm 0.00 in0.0 mm
08:10 PM 61.8°F16.6°C 52.3°F11.3°C 71% Calm Calm -- 30.04 in1017.3 mb - 0.00 in0.0 mm 0.00 in0.0 mm
08:15 PM 61.6°F16.4°C 52.1°F11.2°C 71% Calm Calm -- 30.04 in1017.3 mb - 0.00 in0.0 mm 0.00 in0.0 mm
08:20 PM 61.5°F16.4°C 52.0°F11.1°C 71% Calm Calm -- 30.04 in1017.3 mb - 0.00 in0.0 mm 0.00 in0.0 mm
08:25 PM 61.3°F16.3°C 52.2°F11.2°C 72% Calm Calm -- 30.04 in1017.3 mb - 0.00 in0.0 mm 0.00 in0.0 mm
08:30 PM 61.1°F16.2°C 52.0°F11.1°C 72% Calm Calm -- 30.04 in1017.3 mb - 0.00 in0.0 mm 0.00 in0.0 mm
08:35 PM 60.9°F16.1°C 52.2°F11.2°C 73% Calm Calm -- 30.05 in1017.6 mb - 0.00 in0.0 mm 0.00 in0.0 mm
08:40 PM 60.8°F16.0°C 52.1°F11.2°C 73% Calm Calm -- 30.05 in1017.6 mb - 0.00 in0.0 mm 0.00 in0.0 mm
08:45 PM 60.7°F15.9°C 52.4°F11.3°C 74% Calm Calm -- 30.05 in1017.6 mb - 0.00 in0.0 mm 0.00 in0.0 mm
08:50 PM 60.6°F15.9°C 51.9°F11.1°C 73% Calm Calm -- 30.05 in1017.6 mb - 0.00 in0.0 mm 0.00 in0.0 mm
08:55 PM 60.4°F15.8°C 52.1°F11.2°C 74% Calm Calm -- 30.05 in1017.6 mb - 0.00 in0.0 mm 0.00 in0.0 mm
09:00 PM 60.3°F15.7°C 52.7°F11.5°C 76% Calm Calm -- 30.05 in1017.6 mb - 0.00 in0.0 mm 0.00 in0.0 mm
09:05 PM 60.1°F15.6°C 52.1°F11.2°C 75% Calm Calm -- 30.06 in1017.9 mb - 0.00 in0.0 mm 0.00 in0.0 mm
09:10 PM 59.9°F15.5°C 52.3°F11.3°C 76% Calm Calm -- 30.06 in1017.9 mb - 0.00 in0.0 mm 0.00 in0.0 mm
09:15 PM 59.9°F15.5°C 52.3°F11.3°C 76% Calm Calm -- 30.06 in1017.9 mb - 0.00 in0.0 mm 0.00 in0.0 mm
09:20 PM 59.7°F15.4°C 52.5°F11.4°C 77% Calm Calm -- 30.06 in1017.9 mb - 0.00 in0.0 mm 0.00 in0.0 mm
09:25 PM 59.5°F15.3°C 52.3°F11.3°C 77% Calm Calm -- 30.06 in1017.9 mb - 0.00 in0.0 mm 0.00 in0.0 mm
09:30 PM 59.4°F15.2°C 52.5°F11.4°C 78% Calm Calm -- 30.06 in1017.9 mb - 0.00 in0.0 mm 0.00 in0.0 mm
09:35 PM 59.5°F15.3°C 52.3°F11.3°C 77% Calm Calm -- 30.06 in1017.9 mb - 0.00 in0.0 mm 0.00 in0.0 mm
09:40 PM 59.5°F15.3°C 52.6°F11.4°C 78% Calm Calm -- 30.06 in1017.9 mb - 0.00 in0.0 mm 0.00 in0.0 mm
09:45 PM 59.2°F15.1°C 52.0°F11.1°C 77% Calm Calm -- 30.07 in1018.3 mb - 0.00 in0.0 mm 0.00 in0.0 mm
09:50 PM 58.9°F14.9°C 52.4°F11.3°C 79% Calm Calm -- 30.07 in1018.3 mb - 0.00 in0.0 mm 0.00 in0.0 mm
09:55 PM 58.6°F14.8°C 52.1°F11.2°C 79% Calm Calm -- 30.07 in1018.3 mb - 0.00 in0.0 mm 0.00 in0.0 mm
10:00 PM 58.3°F14.6°C 52.2°F11.2°C 80% Calm Calm -- 30.07 in1018.3 mb - 0.00 in0.0 mm 0.00 in0.0 mm
10:05 PM 58.0°F14.4°C 52.2°F11.2°C 81% Calm Calm -- 30.07 in1018.3 mb - 0.00 in0.0 mm 0.00 in0.0 mm
10:10 PM 57.9°F14.4°C 52.5°F11.4°C 82% Calm Calm -- 30.07 in1018.3 mb - 0.00 in0.0 mm 0.00 in0.0 mm
10:15 PM 57.8°F14.3°C 52.0°F11.1°C 81% Calm Calm -- 30.07 in1018.3 mb - 0.00 in0.0 mm 0.00 in0.0 mm
10:20 PM 57.6°F14.2°C 52.1°F11.2°C 82% Calm Calm -- 30.07 in1018.3 mb - 0.00 in0.0 mm 0.00 in0.0 mm
10:25 PM 57.4°F14.1°C 51.9°F11.1°C 82% Calm Calm -- 30.07 in1018.3 mb - 0.00 in0.0 mm 0.00 in0.0 mm
10:30 PM 57.3°F14.1°C 51.9°F11.1°C 82% Calm Calm -- 30.07 in1018.3 mb - 0.00 in0.0 mm 0.00 in0.0 mm
10:35 PM 57.3°F14.1°C 52.2°F11.2°C 83% Calm Calm -- 30.07 in1018.3 mb - 0.00 in0.0 mm 0.00 in0.0 mm
10:40 PM 57.2°F14.0°C 52.1°F11.2°C 83% Calm Calm -- 30.07 in1018.3 mb - 0.00 in0.0 mm 0.00 in0.0 mm
10:45 PM 57.2°F14.0°C 52.1°F11.2°C 83% Calm Calm -- 30.07 in1018.3 mb - 0.00 in0.0 mm 0.00 in0.0 mm
10:50 PM 57.1°F13.9°C 52.0°F11.1°C 83% Calm Calm -- 30.07 in1018.3 mb - 0.00 in0.0 mm 0.00 in0.0 mm
10:55 PM 56.9°F13.8°C 51.8°F11.0°C 83% Calm Calm -- 30.07 in1018.3 mb - 0.00 in0.0 mm 0.00 in0.0 mm
11:00 PM 56.7°F13.7°C 51.6°F10.9°C 83% Calm Calm -- 30.07 in1018.3 mb - 0.00 in0.0 mm 0.00 in0.0 mm
11:05 PM 56.5°F13.6°C 51.4°F10.8°C 83% Calm Calm -- 30.07 in1018.3 mb - 0.00 in0.0 mm 0.00 in0.0 mm
11:10 PM 56.3°F13.5°C 51.5°F10.8°C 84% Calm Calm -- 30.07 in1018.3 mb - 0.00 in0.0 mm 0.00 in0.0 mm
11:15 PM 56.2°F13.4°C 51.4°F10.8°C 84% Calm Calm -- 30.07 in1018.3 mb - 0.00 in0.0 mm 0.00 in0.0 mm
11:20 PM 55.9°F13.3°C 51.1°F10.6°C 84% Calm Calm -- 30.08 in1018.6 mb - 0.00 in0.0 mm 0.00 in0.0 mm
11:25 PM 55.7°F13.2°C 50.9°F10.5°C 84% Calm Calm -- 30.08 in1018.6 mb - 0.00 in0.0 mm 0.00 in0.0 mm
11:30 PM 55.5°F13.1°C 50.7°F10.4°C 84% Calm Calm -- 30.08 in1018.6 mb - 0.00 in0.0 mm 0.00 in0.0 mm
11:35 PM 55.5°F13.1°C 51.0°F10.6°C 85% Calm Calm -- 30.08 in1018.6 mb - 0.00 in0.0 mm 0.00 in0.0 mm
11:40 PM 55.4°F13.0°C 51.0°F10.6°C 85% Calm Calm -- 30.08 in1018.6 mb - 0.00 in0.0 mm 0.00 in0.0 mm
11:45 PM 55.9°F13.3°C 51.4°F10.8°C 85% Calm Calm -- 30.08 in1018.6 mb - 0.00 in0.0 mm 0.00 in0.0 mm
11:50 PM 56.2°F13.4°C 51.1°F10.6°C 83% Calm Calm -- 30.08 in1018.6 mb - 0.00 in0.0 mm 0.00 in0.0 mm
11:55 PM 56.3°F13.5°C 51.2°F10.7°C 83% Calm Calm -- 30.08 in1018.6 mb - 0.00 in0.0 mm 0.00 in0.0 mm